sensor_id;sensor_type;location;lat;lon;timestamp;P1;durP1;ratioP1;P2;durP2;ratioP2
6354;SDS011;3210;48.708;9.030;2023-02-10T00:01:02;22.40;;;12.10;;
6354;SDS011;3210;48.708;9.030;2023-02-10T00:03:29;26.30;;;13.30;;
6354;SDS011;3210;48.708;9.030;2023-02-10T00:05:56;31.63;;;14.13;;
6354;SDS011;3210;48.708;9.030;2023-02-10T00:08:23;30.03;;;13.70;;
6354;SDS011;3210;48.708;9.030;2023-02-10T00:10:51;34.53;;;14.50;;
6354;SDS011;3210;48.708;9.030;2023-02-10T00:13:22;31.13;;;13.10;;
6354;SDS011;3210;48.708;9.030;2023-02-10T00:15:49;31.80;;;14.93;;
6354;SDS011;3210;48.708;9.030;2023-02-10T00:18:16;27.63;;;12.80;;
6354;SDS011;3210;48.708;9.030;2023-02-10T00:20:43;28.87;;;13.17;;
6354;SDS011;3210;48.708;9.030;2023-02-10T00:23:10;24.90;;;13.43;;
6354;SDS011;3210;48.708;9.030;2023-02-10T00:25:37;28.03;;;13.77;;
6354;SDS011;3210;48.708;9.030;2023-02-10T00:28:05;28.37;;;13.70;;
6354;SDS011;3210;48.708;9.030;2023-02-10T00:30:32;24.87;;;13.33;;
6354;SDS011;3210;48.708;9.030;2023-02-10T00:32:59;29.40;;;14.10;;
6354;SDS011;3210;48.708;9.030;2023-02-10T00:35:26;26.60;;;13.43;;
6354;SDS011;3210;48.708;9.030;2023-02-10T00:37:53;32.70;;;14.53;;
6354;SDS011;3210;48.708;9.030;2023-02-10T00:40:19;29.80;;;13.60;;
6354;SDS011;3210;48.708;9.030;2023-02-10T00:42:46;27.30;;;13.30;;
6354;SDS011;3210;48.708;9.030;2023-02-10T00:45:15;30.93;;;12.50;;
6354;SDS011;3210;48.708;9.030;2023-02-10T00:47:41;28.03;;;14.07;;
6354;SDS011;3210;48.708;9.030;2023-02-10T00:50:08;25.23;;;12.60;;
6354;SDS011;3210;48.708;9.030;2023-02-10T00:52:35;20.60;;;12.67;;
6354;SDS011;3210;48.708;9.030;2023-02-10T00:55:03;27.63;;;13.53;;
6354;SDS011;3210;48.708;9.030;2023-02-10T00:57:30;29.50;;;14.37;;
6354;SDS011;3210;48.708;9.030;2023-02-10T00:59:57;28.93;;;14.10;;
6354;SDS011;3210;48.708;9.030;2023-02-10T01:02:25;25.60;;;12.20;;
6354;SDS011;3210;48.708;9.030;2023-02-10T01:04:52;31.07;;;13.70;;
6354;SDS011;3210;48.708;9.030;2023-02-10T01:07:18;31.70;;;13.87;;
6354;SDS011;3210;48.708;9.030;2023-02-10T01:09:45;27.27;;;13.40;;
6354;SDS011;3210;48.708;9.030;2023-02-10T01:12:12;26.67;;;13.67;;
6354;SDS011;3210;48.708;9.030;2023-02-10T01:14:39;40.80;;;15.00;;
6354;SDS011;3210;48.708;9.030;2023-02-10T01:17:05;41.83;;;14.97;;
6354;SDS011;3210;48.708;9.030;2023-02-10T01:19:33;36.43;;;15.27;;
6354;SDS011;3210;48.708;9.030;2023-02-10T01:22:00;26.83;;;12.30;;
6354;SDS011;3210;48.708;9.030;2023-02-10T01:24:27;28.77;;;13.50;;
6354;SDS011;3210;48.708;9.030;2023-02-10T01:26:54;29.63;;;14.53;;
6354;SDS011;3210;48.708;9.030;2023-02-10T01:29:20;26.10;;;13.20;;
6354;SDS011;3210;48.708;9.030;2023-02-10T01:31:47;26.17;;;13.10;;
6354;SDS011;3210;48.708;9.030;2023-02-10T01:34:14;27.47;;;13.87;;
6354;SDS011;3210;48.708;9.030;2023-02-10T01:36:42;21.40;;;10.70;;
6354;SDS011;3210;48.708;9.030;2023-02-10T01:39:09;31.40;;;13.93;;
6354;SDS011;3210;48.708;9.030;2023-02-10T01:41:36;30.13;;;14.40;;
6354;SDS011;3210;48.708;9.030;2023-02-10T01:44:03;27.70;;;12.47;;
6354;SDS011;3210;48.708;9.030;2023-02-10T01:46:32;29.37;;;13.20;;
6354;SDS011;3210;48.708;9.030;2023-02-10T01:49:01;28.50;;;12.33;;
6354;SDS011;3210;48.708;9.030;2023-02-10T01:51:41;24.97;;;13.17;;
6354;SDS011;3210;48.708;9.030;2023-02-10T01:54:13;30.53;;;14.50;;
6354;SDS011;3210;48.708;9.030;2023-02-10T01:56:43;29.93;;;13.80;;
6354;SDS011;3210;48.708;9.030;2023-02-10T01:59:10;40.23;;;15.83;;
6354;SDS011;3210;48.708;9.030;2023-02-10T02:01:38;37.93;;;14.50;;
6354;SDS011;3210;48.708;9.030;2023-02-10T02:04:05;28.80;;;13.30;;
6354;SDS011;3210;48.708;9.030;2023-02-10T02:06:31;38.90;;;15.30;;
6354;SDS011;3210;48.708;9.030;2023-02-10T02:09:01;24.93;;;12.60;;
6354;SDS011;3210;48.708;9.030;2023-02-10T02:11:30;30.40;;;13.57;;
6354;SDS011;3210;48.708;9.030;2023-02-10T02:17:00;31.10;;;14.03;;
6354;SDS011;3210;48.708;9.030;2023-02-10T02:19:40;34.83;;;14.33;;
6354;SDS011;3210;48.708;9.030;2023-02-10T02:23:02;26.93;;;13.13;;
6354;SDS011;3210;48.708;9.030;2023-02-10T02:25:41;31.10;;;13.10;;
6354;SDS011;3210;48.708;9.030;2023-02-10T02:28:23;38.67;;;13.20;;
6354;SDS011;3210;48.708;9.030;2023-02-10T02:31:01;29.50;;;12.93;;
6354;SDS011;3210;48.708;9.030;2023-02-10T02:33:52;29.13;;;13.00;;
6354;SDS011;3210;48.708;9.030;2023-02-10T02:36:23;30.23;;;14.20;;
6354;SDS011;3210;48.708;9.030;2023-02-10T02:38:58;34.23;;;14.43;;
6354;SDS011;3210;48.708;9.030;2023-02-10T02:41:25;33.73;;;13.00;;
6354;SDS011;3210;48.708;9.030;2023-02-10T02:43:53;27.13;;;14.00;;
6354;SDS011;3210;48.708;9.030;2023-02-10T02:46:22;26.47;;;12.17;;
6354;SDS011;3210;48.708;9.030;2023-02-10T02:49:01;25.30;;;12.17;;
6354;SDS011;3210;48.708;9.030;2023-02-10T02:51:35;26.40;;;12.73;;
6354;SDS011;3210;48.708;9.030;2023-02-10T02:54:11;32.13;;;14.30;;
6354;SDS011;3210;48.708;9.030;2023-02-10T02:56:45;31.10;;;13.63;;
6354;SDS011;3210;48.708;9.030;2023-02-10T02:59:17;30.90;;;12.47;;
6354;SDS011;3210;48.708;9.030;2023-02-10T03:01:51;38.47;;;15.30;;
6354;SDS011;3210;48.708;9.030;2023-02-10T03:04:21;29.63;;;14.33;;
6354;SDS011;3210;48.708;9.030;2023-02-10T03:06:52;27.47;;;14.03;;
6354;SDS011;3210;48.708;9.030;2023-02-10T03:09:19;34.80;;;14.90;;
6354;SDS011;3210;48.708;9.030;2023-02-10T03:11:45;36.40;;;16.07;;
6354;SDS011;3210;48.708;9.030;2023-02-10T03:14:12;49.27;;;14.83;;
6354;SDS011;3210;48.708;9.030;2023-02-10T03:16:39;36.70;;;16.53;;
6354;SDS011;3210;48.708;9.030;2023-02-10T03:19:07;31.40;;;13.90;;
6354;SDS011;3210;48.708;9.030;2023-02-10T03:21:34;34.97;;;15.40;;
6354;SDS011;3210;48.708;9.030;2023-02-10T03:24:01;37.63;;;15.93;;
6354;SDS011;3210;48.708;9.030;2023-02-10T03:26:28;26.73;;;13.97;;
6354;SDS011;3210;48.708;9.030;2023-02-10T03:28:56;31.67;;;14.57;;
6354;SDS011;3210;48.708;9.030;2023-02-10T03:31:23;29.77;;;14.20;;
6354;SDS011;3210;48.708;9.030;2023-02-10T03:33:49;34.73;;;15.47;;
6354;SDS011;3210;48.708;9.030;2023-02-10T03:36:18;28.20;;;13.17;;
6354;SDS011;3210;48.708;9.030;2023-02-10T03:38:44;33.83;;;14.20;;
6354;SDS011;3210;48.708;9.030;2023-02-10T03:41:11;34.93;;;15.20;;
6354;SDS011;3210;48.708;9.030;2023-02-10T03:43:38;39.57;;;15.60;;
6354;SDS011;3210;48.708;9.030;2023-02-10T03:46:06;27.13;;;13.27;;
6354;SDS011;3210;48.708;9.030;2023-02-10T03:48:32;35.70;;;15.10;;
6354;SDS011;3210;48.708;9.030;2023-02-10T03:50:59;32.20;;;14.77;;
6354;SDS011;3210;48.708;9.030;2023-02-10T03:53:29;28.70;;;13.90;;
6354;SDS011;3210;48.708;9.030;2023-02-10T03:55:56;30.27;;;13.93;;
6354;SDS011;3210;48.708;9.030;2023-02-10T03:58:23;32.23;;;15.67;;
6354;SDS011;3210;48.708;9.030;2023-02-10T04:00:50;31.13;;;14.57;;
6354;SDS011;3210;48.708;9.030;2023-02-10T04:03:17;31.80;;;14.10;;
6354;SDS011;3210;48.708;9.030;2023-02-10T04:05:45;36.27;;;16.70;;
6354;SDS011;3210;48.708;9.030;2023-02-10T04:08:12;30.23;;;15.30;;
6354;SDS011;3210;48.708;9.030;2023-02-10T04:10:40;28.60;;;14.03;;
6354;SDS011;3210;48.708;9.030;2023-02-10T04:13:07;34.27;;;15.40;;
6354;SDS011;3210;48.708;9.030;2023-02-10T04:15:33;31.40;;;14.17;;
6354;SDS011;3210;48.708;9.030;2023-02-10T04:18:00;32.97;;;14.47;;
6354;SDS011;3210;48.708;9.030;2023-02-10T04:20:27;31.10;;;13.90;;
6354;SDS011;3210;48.708;9.030;2023-02-10T04:22:54;33.07;;;13.53;;
6354;SDS011;3210;48.708;9.030;2023-02-10T04:25:21;26.50;;;14.47;;
6354;SDS011;3210;48.708;9.030;2023-02-10T04:27:49;31.10;;;14.17;;
6354;SDS011;3210;48.708;9.030;2023-02-10T04:30:16;28.17;;;12.90;;
6354;SDS011;3210;48.708;9.030;2023-02-10T04:32:42;25.93;;;13.33;;
6354;SDS011;3210;48.708;9.030;2023-02-10T04:35:09;29.93;;;13.50;;
6354;SDS011;3210;48.708;9.030;2023-02-10T04:37:36;34.20;;;14.27;;
6354;SDS011;3210;48.708;9.030;2023-02-10T04:40:03;27.10;;;14.33;;
6354;SDS011;3210;48.708;9.030;2023-02-10T04:42:30;30.50;;;14.03;;
6354;SDS011;3210;48.708;9.030;2023-02-10T04:44:58;32.90;;;13.97;;
6354;SDS011;3210;48.708;9.030;2023-02-10T04:47:25;35.77;;;14.47;;
6354;SDS011;3210;48.708;9.030;2023-02-10T04:49:52;38.43;;;15.97;;
6354;SDS011;3210;48.708;9.030;2023-02-10T04:52:19;32.13;;;14.80;;
6354;SDS011;3210;48.708;9.030;2023-02-10T04:54:46;27.50;;;13.93;;
6354;SDS011;3210;48.708;9.030;2023-02-10T04:57:13;28.73;;;13.60;;
6354;SDS011;3210;48.708;9.030;2023-02-10T04:59:40;29.77;;;12.90;;
6354;SDS011;3210;48.708;9.030;2023-02-10T05:02:08;35.23;;;15.60;;
6354;SDS011;3210;48.708;9.030;2023-02-10T05:04:35;27.07;;;13.43;;
6354;SDS011;3210;48.708;9.030;2023-02-10T05:07:02;35.80;;;12.90;;
6354;SDS011;3210;48.708;9.030;2023-02-10T05:09:28;27.40;;;13.20;;
6354;SDS011;3210;48.708;9.030;2023-02-10T05:11:55;39.13;;;15.03;;
6354;SDS011;3210;48.708;9.030;2023-02-10T05:14:22;25.63;;;12.90;;
6354;SDS011;3210;48.708;9.030;2023-02-10T05:16:49;33.50;;;15.03;;
6354;SDS011;3210;48.708;9.030;2023-02-10T05:19:17;29.77;;;14.80;;
6354;SDS011;3210;48.708;9.030;2023-02-10T05:21:44;27.37;;;11.73;;
6354;SDS011;3210;48.708;9.030;2023-02-10T05:24:11;26.20;;;12.83;;
6354;SDS011;3210;48.708;9.030;2023-02-10T05:26:37;28.73;;;14.93;;
6354;SDS011;3210;48.708;9.030;2023-02-10T05:29:04;31.87;;;14.13;;
6354;SDS011;3210;48.708;9.030;2023-02-10T05:31:31;25.27;;;15.00;;
6354;SDS011;3210;48.708;9.030;2023-02-10T05:33:58;26.03;;;12.93;;
6354;SDS011;3210;48.708;9.030;2023-02-10T05:36:26;34.47;;;14.20;;
6354;SDS011;3210;48.708;9.030;2023-02-10T05:38:53;24.90;;;12.03;;
6354;SDS011;3210;48.708;9.030;2023-02-10T05:41:37;30.90;;;13.90;;
6354;SDS011;3210;48.708;9.030;2023-02-10T05:44:04;36.10;;;13.40;;
6354;SDS011;3210;48.708;9.030;2023-02-10T05:46:31;44.10;;;15.50;;
6354;SDS011;3210;48.708;9.030;2023-02-10T05:48:58;44.07;;;15.03;;
6354;SDS011;3210;48.708;9.030;2023-02-10T05:51:24;27.00;;;14.37;;
6354;SDS011;3210;48.708;9.030;2023-02-10T05:53:52;29.17;;;12.90;;
6354;SDS011;3210;48.708;9.030;2023-02-10T05:56:19;29.07;;;13.27;;
6354;SDS011;3210;48.708;9.030;2023-02-10T05:58:46;33.97;;;14.27;;
6354;SDS011;3210;48.708;9.030;2023-02-10T06:01:13;26.67;;;12.00;;
6354;SDS011;3210;48.708;9.030;2023-02-10T06:03:40;40.17;;;15.07;;
6354;SDS011;3210;48.708;9.030;2023-02-10T06:06:07;28.70;;;13.57;;
6354;SDS011;3210;48.708;9.030;2023-02-10T06:08:35;25.00;;;13.80;;
6354;SDS011;3210;48.708;9.030;2023-02-10T06:11:01;27.67;;;13.10;;
6354;SDS011;3210;48.708;9.030;2023-02-10T06:13:28;39.57;;;14.30;;
6354;SDS011;3210;48.708;9.030;2023-02-10T06:15:55;26.10;;;11.80;;
6354;SDS011;3210;48.708;9.030;2023-02-10T06:18:22;31.90;;;14.80;;
6354;SDS011;3210;48.708;9.030;2023-02-10T06:20:49;38.20;;;12.30;;
6354;SDS011;3210;48.708;9.030;2023-02-10T06:23:16;27.97;;;14.37;;
6354;SDS011;3210;48.708;9.030;2023-02-10T06:25:45;24.83;;;13.30;;
6354;SDS011;3210;48.708;9.030;2023-02-10T06:28:12;34.40;;;14.10;;
6354;SDS011;3210;48.708;9.030;2023-02-10T06:30:41;35.83;;;14.37;;
6354;SDS011;3210;48.708;9.030;2023-02-10T06:33:07;29.90;;;15.03;;
6354;SDS011;3210;48.708;9.030;2023-02-10T06:35:34;29.40;;;15.20;;
6354;SDS011;3210;48.708;9.030;2023-02-10T06:38:01;35.37;;;15.80;;
6354;SDS011;3210;48.708;9.030;2023-02-10T06:40:30;28.93;;;13.90;;
6354;SDS011;3210;48.708;9.030;2023-02-10T06:42:58;27.87;;;13.57;;
6354;SDS011;3210;48.708;9.030;2023-02-10T06:45:26;26.27;;;13.70;;
6354;SDS011;3210;48.708;9.030;2023-02-10T06:47:53;28.10;;;13.97;;
6354;SDS011;3210;48.708;9.030;2023-02-10T06:50:20;26.97;;;14.70;;
6354;SDS011;3210;48.708;9.030;2023-02-10T06:52:47;24.13;;;12.30;;
6354;SDS011;3210;48.708;9.030;2023-02-10T06:55:14;22.03;;;12.23;;
6354;SDS011;3210;48.708;9.030;2023-02-10T06:57:41;26.73;;;12.77;;
6354;SDS011;3210;48.708;9.030;2023-02-10T07:00:10;35.97;;;14.43;;
6354;SDS011;3210;48.708;9.030;2023-02-10T07:02:38;30.27;;;14.33;;
6354;SDS011;3210;48.708;9.030;2023-02-10T07:05:07;31.63;;;15.20;;
6354;SDS011;3210;48.708;9.030;2023-02-10T07:07:36;23.50;;;13.67;;
6354;SDS011;3210;48.708;9.030;2023-02-10T07:10:06;27.10;;;12.73;;
6354;SDS011;3210;48.708;9.030;2023-02-10T07:12:33;25.80;;;13.10;;
6354;SDS011;3210;48.708;9.030;2023-02-10T07:15:00;29.70;;;14.33;;
6354;SDS011;3210;48.708;9.030;2023-02-10T07:17:29;29.03;;;13.30;;
6354;SDS011;3210;48.708;9.030;2023-02-10T07:19:55;37.27;;;16.63;;
6354;SDS011;3210;48.708;9.030;2023-02-10T07:22:22;26.63;;;12.60;;
6354;SDS011;3210;48.708;9.030;2023-02-10T07:24:49;29.70;;;14.40;;
6354;SDS011;3210;48.708;9.030;2023-02-10T07:27:16;32.33;;;13.87;;
6354;SDS011;3210;48.708;9.030;2023-02-10T07:29:43;35.93;;;15.50;;
6354;SDS011;3210;48.708;9.030;2023-02-10T07:32:09;28.73;;;15.03;;
6354;SDS011;3210;48.708;9.030;2023-02-10T07:34:37;29.40;;;14.93;;
6354;SDS011;3210;48.708;9.030;2023-02-10T07:37:05;37.63;;;15.50;;
6354;SDS011;3210;48.708;9.030;2023-02-10T07:39:32;33.60;;;15.60;;
6354;SDS011;3210;48.708;9.030;2023-02-10T07:41:59;34.77;;;16.83;;
6354;SDS011;3210;48.708;9.030;2023-02-10T07:44:26;32.27;;;14.10;;
6354;SDS011;3210;48.708;9.030;2023-02-10T07:46:52;51.50;;;14.33;;
6354;SDS011;3210;48.708;9.030;2023-02-10T07:49:20;36.47;;;17.10;;
6354;SDS011;3210;48.708;9.030;2023-02-10T07:51:48;34.80;;;13.17;;
6354;SDS011;3210;48.708;9.030;2023-02-10T07:54:14;31.17;;;14.00;;
6354;SDS011;3210;48.708;9.030;2023-02-10T07:56:41;32.47;;;15.67;;
6354;SDS011;3210;48.708;9.030;2023-02-10T07:59:08;32.73;;;16.03;;
6354;SDS011;3210;48.708;9.030;2023-02-10T08:01:35;38.33;;;15.87;;
6354;SDS011;3210;48.708;9.030;2023-02-10T08:04:06;39.17;;;16.43;;
6354;SDS011;3210;48.708;9.030;2023-02-10T08:06:33;34.40;;;17.07;;
6354;SDS011;3210;48.708;9.030;2023-02-10T08:09:01;33.97;;;17.17;;
6354;SDS011;3210;48.708;9.030;2023-02-10T08:11:29;29.43;;;16.03;;
6354;SDS011;3210;48.708;9.030;2023-02-10T08:13:56;31.27;;;15.60;;
6354;SDS011;3210;48.708;9.030;2023-02-10T08:16:23;27.33;;;13.00;;
6354;SDS011;3210;48.708;9.030;2023-02-10T08:18:49;38.70;;;18.17;;
6354;SDS011;3210;48.708;9.030;2023-02-10T08:21:16;34.50;;;15.80;;
6354;SDS011;3210;48.708;9.030;2023-02-10T08:23:43;33.07;;;16.60;;
6354;SDS011;3210;48.708;9.030;2023-02-10T08:26:12;38.00;;;16.07;;
6354;SDS011;3210;48.708;9.030;2023-02-10T08:28:39;35.80;;;16.90;;
6354;SDS011;3210;48.708;9.030;2023-02-10T08:31:07;38.50;;;17.10;;
6354;SDS011;3210;48.708;9.030;2023-02-10T08:33:34;33.40;;;16.10;;
6354;SDS011;3210;48.708;9.030;2023-02-10T08:36:03;45.27;;;17.97;;
6354;SDS011;3210;48.708;9.030;2023-02-10T08:38:30;34.23;;;16.47;;
6354;SDS011;3210;48.708;9.030;2023-02-10T08:40:57;33.93;;;16.13;;
6354;SDS011;3210;48.708;9.030;2023-02-10T08:43:26;30.27;;;16.27;;
6354;SDS011;3210;48.708;9.030;2023-02-10T08:45:54;26.10;;;15.90;;
6354;SDS011;3210;48.708;9.030;2023-02-10T08:48:21;31.53;;;15.37;;
6354;SDS011;3210;48.708;9.030;2023-02-10T08:50:49;31.80;;;16.60;;
6354;SDS011;3210;48.708;9.030;2023-02-10T08:53:16;39.33;;;16.20;;
6354;SDS011;3210;48.708;9.030;2023-02-10T08:55:42;37.57;;;15.37;;
6354;SDS011;3210;48.708;9.030;2023-02-10T08:58:09;28.77;;;14.00;;
6354;SDS011;3210;48.708;9.030;2023-02-10T09:00:37;27.27;;;15.00;;
6354;SDS011;3210;48.708;9.030;2023-02-10T09:03:04;36.70;;;16.50;;
6354;SDS011;3210;48.708;9.030;2023-02-10T09:05:34;39.80;;;16.17;;
6354;SDS011;3210;48.708;9.030;2023-02-10T09:08:01;37.43;;;15.67;;
6354;SDS011;3210;48.708;9.030;2023-02-10T09:10:29;38.07;;;17.83;;
6354;SDS011;3210;48.708;9.030;2023-02-10T09:12:56;30.57;;;16.23;;
6354;SDS011;3210;48.708;9.030;2023-02-10T09:15:23;28.90;;;15.13;;
6354;SDS011;3210;48.708;9.030;2023-02-10T09:17:51;31.27;;;15.53;;
6354;SDS011;3210;48.708;9.030;2023-02-10T09:20:18;34.13;;;16.90;;
6354;SDS011;3210;48.708;9.030;2023-02-10T09:22:45;33.97;;;16.60;;
6354;SDS011;3210;48.708;9.030;2023-02-10T09:25:12;36.87;;;16.60;;
6354;SDS011;3210;48.708;9.030;2023-02-10T09:27:39;29.93;;;16.40;;
6354;SDS011;3210;48.708;9.030;2023-02-10T09:30:06;37.10;;;17.80;;
6354;SDS011;3210;48.708;9.030;2023-02-10T09:32:34;35.97;;;17.47;;
6354;SDS011;3210;48.708;9.030;2023-02-10T09:35:02;36.47;;;17.60;;
6354;SDS011;3210;48.708;9.030;2023-02-10T09:37:29;34.10;;;16.20;;
6354;SDS011;3210;48.708;9.030;2023-02-10T09:39:56;26.37;;;15.43;;
6354;SDS011;3210;48.708;9.030;2023-02-10T09:42:25;38.13;;;16.97;;
6354;SDS011;3210;48.708;9.030;2023-02-10T09:44:57;35.97;;;18.43;;
6354;SDS011;3210;48.708;9.030;2023-02-10T09:47:40;35.37;;;15.43;;
6354;SDS011;3210;48.708;9.030;2023-02-10T09:50:32;37.90;;;17.60;;
6354;SDS011;3210;48.708;9.030;2023-02-10T09:53:11;33.47;;;15.70;;
6354;SDS011;3210;48.708;9.030;2023-02-10T09:55:40;38.90;;;14.93;;
6354;SDS011;3210;48.708;9.030;2023-02-10T09:58:13;36.13;;;17.80;;
6354;SDS011;3210;48.708;9.030;2023-02-10T10:00:45;35.17;;;16.23;;
6354;SDS011;3210;48.708;9.030;2023-02-10T10:03:18;36.60;;;16.43;;
6354;SDS011;3210;48.708;9.030;2023-02-10T10:05:55;37.23;;;16.93;;
6354;SDS011;3210;48.708;9.030;2023-02-10T10:08:30;37.17;;;16.30;;
6354;SDS011;3210;48.708;9.030;2023-02-10T10:11:05;34.87;;;17.03;;
6354;SDS011;3210;48.708;9.030;2023-02-10T10:13:47;36.00;;;17.37;;
6354;SDS011;3210;48.708;9.030;2023-02-10T10:16:17;29.40;;;14.73;;
6354;SDS011;3210;48.708;9.030;2023-02-10T10:18:57;32.07;;;16.07;;
6354;SDS011;3210;48.708;9.030;2023-02-10T10:21:32;32.47;;;15.43;;
6354;SDS011;3210;48.708;9.030;2023-02-10T10:24:11;30.77;;;16.30;;
6354;SDS011;3210;48.708;9.030;2023-02-10T10:26:58;30.30;;;15.90;;
6354;SDS011;3210;48.708;9.030;2023-02-10T10:29:39;32.50;;;13.67;;
6354;SDS011;3210;48.708;9.030;2023-02-10T10:32:15;33.20;;;14.53;;
6354;SDS011;3210;48.708;9.030;2023-02-10T10:34:49;33.33;;;14.83;;
6354;SDS011;3210;48.708;9.030;2023-02-10T10:37:20;27.47;;;12.60;;
6354;SDS011;3210;48.708;9.030;2023-02-10T10:39:48;29.60;;;14.47;;
6354;SDS011;3210;48.708;9.030;2023-02-10T10:42:23;32.63;;;14.47;;
6354;SDS011;3210;48.708;9.030;2023-02-10T10:44:55;28.27;;;13.67;;
6354;SDS011;3210;48.708;9.030;2023-02-10T10:47:29;35.20;;;15.00;;
6354;SDS011;3210;48.708;9.030;2023-02-10T10:50:02;30.73;;;14.43;;
6354;SDS011;3210;48.708;9.030;2023-02-10T10:52:32;32.40;;;15.50;;
6354;SDS011;3210;48.708;9.030;2023-02-10T10:55:01;33.50;;;12.00;;
6354;SDS011;3210;48.708;9.030;2023-02-10T10:57:31;19.80;;;11.70;;
6354;SDS011;3210;48.708;9.030;2023-02-10T11:00:02;21.47;;;11.30;;
6354;SDS011;3210;48.708;9.030;2023-02-10T11:02:35;25.90;;;12.23;;
6354;SDS011;3210;48.708;9.030;2023-02-10T11:05:03;24.50;;;12.63;;
6354;SDS011;3210;48.708;9.030;2023-02-10T11:07:32;25.73;;;12.10;;
6354;SDS011;3210;48.708;9.030;2023-02-10T11:10:01;31.07;;;14.13;;
6354;SDS011;3210;48.708;9.030;2023-02-10T11:12:30;28.17;;;12.10;;
6354;SDS011;3210;48.708;9.030;2023-02-10T11:14:59;22.20;;;11.93;;
6354;SDS011;3210;48.708;9.030;2023-02-10T11:17:29;22.57;;;12.53;;
6354;SDS011;3210;48.708;9.030;2023-02-10T11:19:59;17.90;;;11.67;;
6354;SDS011;3210;48.708;9.030;2023-02-10T11:22:29;23.60;;;11.57;;
6354;SDS011;3210;48.708;9.030;2023-02-10T11:24:57;23.20;;;11.63;;
6354;SDS011;3210;48.708;9.030;2023-02-10T11:27:26;23.13;;;12.03;;
6354;SDS011;3210;48.708;9.030;2023-02-10T11:29:53;24.77;;;12.63;;
6354;SDS011;3210;48.708;9.030;2023-02-10T11:32:22;23.10;;;12.20;;
6354;SDS011;3210;48.708;9.030;2023-02-10T11:34:52;28.60;;;12.83;;
6354;SDS011;3210;48.708;9.030;2023-02-10T11:37:22;29.73;;;11.60;;
6354;SDS011;3210;48.708;9.030;2023-02-10T11:39:53;31.00;;;11.67;;
6354;SDS011;3210;48.708;9.030;2023-02-10T11:42:23;18.73;;;10.13;;
6354;SDS011;3210;48.708;9.030;2023-02-10T11:44:55;23.37;;;12.37;;
6354;SDS011;3210;48.708;9.030;2023-02-10T11:47:23;25.20;;;12.03;;
6354;SDS011;3210;48.708;9.030;2023-02-10T11:49:51;25.40;;;11.87;;
6354;SDS011;3210;48.708;9.030;2023-02-10T11:52:18;25.23;;;11.73;;
6354;SDS011;3210;48.708;9.030;2023-02-10T11:54:48;18.30;;;11.13;;
6354;SDS011;3210;48.708;9.030;2023-02-10T11:57:19;23.80;;;11.40;;
6354;SDS011;3210;48.708;9.030;2023-02-10T12:00:25;24.90;;;11.37;;
6354;SDS011;3210;48.708;9.030;2023-02-10T12:05:55;16.20;;;10.00;;
6354;SDS011;3210;48.708;9.030;2023-02-10T12:08:32;20.20;;;10.30;;
6354;SDS011;3210;48.708;9.030;2023-02-10T12:11:06;27.93;;;10.93;;
6354;SDS011;3210;48.708;9.030;2023-02-10T12:13:41;21.43;;;10.33;;
6354;SDS011;3210;48.708;9.030;2023-02-10T12:16:17;21.63;;;10.77;;
6354;SDS011;3210;48.708;9.030;2023-02-10T12:18:53;20.20;;;10.10;;
6354;SDS011;3210;48.708;9.030;2023-02-10T12:21:42;19.80;;;10.83;;
6354;SDS011;3210;48.708;9.030;2023-02-10T12:24:28;16.27;;;9.23;;
6354;SDS011;3210;48.708;9.030;2023-02-10T12:27:10;16.07;;;9.50;;
6354;SDS011;3210;48.708;9.030;2023-02-10T12:29:47;20.17;;;10.97;;
6354;SDS011;3210;48.708;9.030;2023-02-10T12:32:23;19.83;;;10.43;;
6354;SDS011;3210;48.708;9.030;2023-02-10T12:35:05;20.27;;;9.93;;
6354;SDS011;3210;48.708;9.030;2023-02-10T12:37:46;20.00;;;10.40;;
6354;SDS011;3210;48.708;9.030;2023-02-10T12:40:22;19.90;;;10.57;;
6354;SDS011;3210;48.708;9.030;2023-02-10T12:43:00;21.83;;;10.63;;
6354;SDS011;3210;48.708;9.030;2023-02-10T12:45:40;17.30;;;9.70;;
6354;SDS011;3210;48.708;9.030;2023-02-10T12:48:16;21.70;;;10.90;;
6354;SDS011;3210;48.708;9.030;2023-02-10T12:51:10;21.37;;;10.93;;
6354;SDS011;3210;48.708;9.030;2023-02-10T12:53:47;24.40;;;11.27;;
6354;SDS011;3210;48.708;9.030;2023-02-10T12:56:17;18.83;;;11.53;;
6354;SDS011;3210;48.708;9.030;2023-02-10T12:58:47;25.73;;;11.07;;
6354;SDS011;3210;48.708;9.030;2023-02-10T13:01:22;24.20;;;10.10;;
6354;SDS011;3210;48.708;9.030;2023-02-10T13:03:54;15.03;;;9.73;;
6354;SDS011;3210;48.708;9.030;2023-02-10T13:06:27;20.67;;;11.03;;
6354;SDS011;3210;48.708;9.030;2023-02-10T13:08:58;20.17;;;10.50;;
6354;SDS011;3210;48.708;9.030;2023-02-10T13:11:33;23.50;;;10.70;;
6354;SDS011;3210;48.708;9.030;2023-02-10T13:14:05;16.40;;;9.87;;
6354;SDS011;3210;48.708;9.030;2023-02-10T13:16:39;16.87;;;9.77;;
6354;SDS011;3210;48.708;9.030;2023-02-10T13:19:20;19.03;;;10.80;;
6354;SDS011;3210;48.708;9.030;2023-02-10T13:21:57;19.87;;;11.10;;
6354;SDS011;3210;48.708;9.030;2023-02-10T13:24:29;22.73;;;11.67;;
6354;SDS011;3210;48.708;9.030;2023-02-10T13:27:10;19.80;;;10.50;;
6354;SDS011;3210;48.708;9.030;2023-02-10T13:29:52;19.90;;;9.97;;
6354;SDS011;3210;48.708;9.030;2023-02-10T13:32:35;21.90;;;10.00;;
6354;SDS011;3210;48.708;9.030;2023-02-10T13:35:13;18.07;;;10.03;;
6354;SDS011;3210;48.708;9.030;2023-02-10T13:37:43;24.73;;;10.67;;
6354;SDS011;3210;48.708;9.030;2023-02-10T13:40:15;18.63;;;10.57;;
6354;SDS011;3210;48.708;9.030;2023-02-10T13:42:49;20.87;;;10.03;;
6354;SDS011;3210;48.708;9.030;2023-02-10T13:45:18;19.37;;;11.37;;
6354;SDS011;3210;48.708;9.030;2023-02-10T13:47:49;17.47;;;10.73;;
6354;SDS011;3210;48.708;9.030;2023-02-10T13:50:26;12.37;;;9.00;;
6354;SDS011;3210;48.708;9.030;2023-02-10T13:52:56;31.27;;;12.80;;
6354;SDS011;3210;48.708;9.030;2023-02-10T13:55:30;21.50;;;12.20;;
6354;SDS011;3210;48.708;9.030;2023-02-10T13:58:25;23.40;;;12.60;;
6354;SDS011;3210;48.708;9.030;2023-02-10T14:00:59;24.03;;;12.30;;
6354;SDS011;3210;48.708;9.030;2023-02-10T14:03:28;21.33;;;11.77;;
6354;SDS011;3210;48.708;9.030;2023-02-10T14:05:57;28.43;;;12.70;;
6354;SDS011;3210;48.708;9.030;2023-02-10T14:08:27;22.50;;;13.13;;
6354;SDS011;3210;48.708;9.030;2023-02-10T14:10:58;18.70;;;11.73;;
6354;SDS011;3210;48.708;9.030;2023-02-10T14:13:27;24.80;;;11.93;;
6354;SDS011;3210;48.708;9.030;2023-02-10T14:15:57;23.97;;;11.07;;
6354;SDS011;3210;48.708;9.030;2023-02-10T14:18:28;21.67;;;11.97;;
6354;SDS011;3210;48.708;9.030;2023-02-10T14:20:56;22.50;;;12.10;;
6354;SDS011;3210;48.708;9.030;2023-02-10T14:23:26;23.97;;;12.07;;
6354;SDS011;3210;48.708;9.030;2023-02-10T14:25:56;23.40;;;12.47;;
6354;SDS011;3210;48.708;9.030;2023-02-10T14:28:25;20.10;;;11.00;;
6354;SDS011;3210;48.708;9.030;2023-02-10T14:30:56;26.10;;;12.03;;
6354;SDS011;3210;48.708;9.030;2023-02-10T14:33:26;26.13;;;11.90;;
6354;SDS011;3210;48.708;9.030;2023-02-10T14:35:56;20.20;;;11.40;;
6354;SDS011;3210;48.708;9.030;2023-02-10T14:38:25;29.80;;;13.60;;
6354;SDS011;3210;48.708;9.030;2023-02-10T14:40:54;28.33;;;13.13;;
6354;SDS011;3210;48.708;9.030;2023-02-10T14:43:24;22.03;;;12.13;;
6354;SDS011;3210;48.708;9.030;2023-02-10T14:45:53;22.27;;;12.60;;
6354;SDS011;3210;48.708;9.030;2023-02-10T14:48:22;27.27;;;14.53;;
6354;SDS011;3210;48.708;9.030;2023-02-10T14:50:59;29.37;;;11.73;;
6354;SDS011;3210;48.708;9.030;2023-02-10T14:53:27;24.73;;;12.97;;
6354;SDS011;3210;48.708;9.030;2023-02-10T14:55:55;24.40;;;14.10;;
6354;SDS011;3210;48.708;9.030;2023-02-10T14:58:23;24.50;;;11.60;;
6354;SDS011;3210;48.708;9.030;2023-02-10T15:00:54;24.50;;;13.13;;
6354;SDS011;3210;48.708;9.030;2023-02-10T15:03:25;21.13;;;11.70;;
6354;SDS011;3210;48.708;9.030;2023-02-10T15:05:53;28.70;;;13.43;;
6354;SDS011;3210;48.708;9.030;2023-02-10T15:08:28;31.57;;;13.50;;
6354;SDS011;3210;48.708;9.030;2023-02-10T15:11:00;23.03;;;12.37;;